Time;durP1;ratioP1;P1;durP2;ratioP2;P2;SDS_P1;SDS_P2;PMS_P1;PMS_P2;Temp;Humidity;BMP_temperature;BMP_pressure;BME280_temperature;BME280_humidity;BME280_pressure;Samples;Min_cycle;Max_cycle;Signal;HPM_P1;HPM_P2
2023/12/03 00:00:13;;;;;;;12.80;9.05;;;;;;;;;;6280040;22;20812;-79
2023/12/03 00:02:42;;;;;;;7.50;6.68;;;;;;;;;;6280074;22;20207;-80
2023/12/03 00:05:10;;;;;;;8.82;7.07;;;;;;;;;;6281661;22;20653;-79
2023/12/03 00:07:37;;;;;;;9.40;7.40;;;;;;;;;;6280763;22;20339;-79
2023/12/03 00:10:06;;;;;;;7.38;5.95;;;;;;;;;;6282081;22;20255;-80
2023/12/03 00:12:34;;;;;;;10.95;8.65;;;;;;;;;;6282177;22;20176;-80
2023/12/03 00:15:02;;;;;;;7.72;6.72;;;;;;;;;;6282074;22;20327;-80
2023/12/03 00:17:30;;;;;;;11.23;8.70;;;;;;;;;;6282526;22;20231;-80
2023/12/03 00:19:57;;;;;;;12.68;10.07;;;;;;;;;;6280951;22;20271;-80
2023/12/03 00:22:25;;;;;;;11.73;9.77;;;;;;;;;;6281191;22;20564;-80
2023/12/03 00:24:52;;;;;;;8.90;7.60;;;;;;;;;;6282777;22;20224;-80
2023/12/03 00:27:20;;;;;;;9.43;6.65;;;;;;;;;;6283046;22;20255;-80
2023/12/03 00:29:47;;;;;;;6.63;5.93;;;;;;;;;;6281067;22;20275;-80
2023/12/03 00:32:16;;;;;;;8.30;6.43;;;;;;;;;;6283782;22;20232;-80
2023/12/03 00:34:44;;;;;;;6.22;5.22;;;;;;;;;;6284784;22;20199;-80
2023/12/03 00:37:11;;;;;;;6.07;5.43;;;;;;;;;;6283823;22;20200;-80
2023/12/03 00:39:39;;;;;;;5.95;5.35;;;;;;;;;;6284280;22;20206;-79
2023/12/03 00:42:06;;;;;;;5.65;5.15;;;;;;;;;;6284076;22;20503;-79
2023/12/03 00:44:34;;;;;;;6.40;5.70;;;;;;;;;;6283684;22;20195;-80
2023/12/03 00:47:01;;;;;;;5.45;4.93;;;;;;;;;;6284723;22;20698;-80
2023/12/03 00:49:30;;;;;;;8.57;7.28;;;;;;;;;;6283630;22;20230;-80
2023/12/03 00:51:58;;;;;;;7.88;7.05;;;;;;;;;;6283539;22;20563;-80
2023/12/03 00:54:25;;;;;;;8.45;6.95;;;;;;;;;;6283261;22;20259;-79
2023/12/03 00:56:52;;;;;;;7.65;6.20;;;;;;;;;;6283860;22;20453;-79
2023/12/03 00:59:20;;;;;;;11.07;8.13;;;;;;;;;;6282517;22;20231;-80
2023/12/03 01:01:47;;;;;;;10.30;8.05;;;;;;;;;;6283378;22;20251;-80
2023/12/03 01:04:15;;;;;;;9.48;7.47;;;;;;;;;;6283909;22;20664;-79
2023/12/03 01:06:44;;;;;;;8.80;7.80;;;;;;;;;;6283322;22;20251;-80
2023/12/03 01:09:11;;;;;;;9.50;7.78;;;;;;;;;;6284302;22;20250;-79
2023/12/03 01:11:41;;;;;;;8.65;7.43;;;;;;;;;;6283080;22;20274;-79
2023/12/03 01:14:09;;;;;;;8.88;6.47;;;;;;;;;;6284178;22;20172;-80
2023/12/03 01:16:36;;;;;;;13.50;8.93;;;;;;;;;;6283752;22;20177;-80
2023/12/03 01:19:04;;;;;;;9.77;7.40;;;;;;;;;;6283212;22;20729;-79
2023/12/03 01:21:31;;;;;;;11.35;9.32;;;;;;;;;;6283285;22;20510;-80
2023/12/03 01:24:00;;;;;;;15.07;10.75;;;;;;;;;;6282540;22;20218;-80
2023/12/03 01:26:28;;;;;;;13.88;10.52;;;;;;;;;;6284450;22;20227;-79
2023/12/03 01:28:56;;;;;;;14.07;10.77;;;;;;;;;;6283318;22;20677;-80
2023/12/03 01:31:23;;;;;;;15.30;10.75;;;;;;;;;;6283002;22;20236;-80
2023/12/03 01:33:51;;;;;;;13.20;10.02;;;;;;;;;;6283507;22;20211;-80
2023/12/03 01:36:18;;;;;;;15.32;11.43;;;;;;;;;;6283509;22;20207;-79
2023/12/03 01:38:45;;;;;;;16.73;11.30;;;;;;;;;;6282803;22;20196;-80
2023/12/03 01:41:14;;;;;;;15.32;10.75;;;;;;;;;;6283061;22;20232;-79
2023/12/03 01:43:49;;;;;;;13.90;8.60;;;;;;;;;;6283566;22;20236;-80
2023/12/03 01:46:17;;;;;;;13.75;10.27;;;;;;;;;;6283019;22;20691;-80
2023/12/03 01:48:45;;;;;;;9.73;8.52;;;;;;;;;;6283260;22;20197;-80
2023/12/03 01:51:12;;;;;;;14.40;10.70;;;;;;;;;;6283772;22;20204;-80
2023/12/03 01:53:40;;;;;;;11.52;8.75;;;;;;;;;;6283968;22;20224;-80
2023/12/03 01:56:09;;;;;;;13.95;9.27;;;;;;;;;;6283891;22;20211;-80
2023/12/03 01:58:38;;;;;;;10.38;8.40;;;;;;;;;;6283885;22;20594;-79
2023/12/03 02:01:06;;;;;;;9.00;7.90;;;;;;;;;;6283203;22;20259;-79
2023/12/03 02:03:34;;;;;;;11.40;8.48;;;;;;;;;;6283244;22;20180;-80
2023/12/03 02:06:06;;;;;;;10.48;7.70;;;;;;;;;;6283247;22;20479;-79
2023/12/03 02:08:33;;;;;;;8.85;7.95;;;;;;;;;;6283486;22;20219;-80
2023/12/03 02:11:02;;;;;;;15.63;11.10;;;;;;;;;;6282881;22;20684;-79
2023/12/03 02:13:33;;;;;;;8.70;7.03;;;;;;;;;;6283988;22;20180;-80
2023/12/03 02:16:02;;;;;;;13.73;9.30;;;;;;;;;;6283898;22;20157;-79
2023/12/03 02:18:29;;;;;;;11.13;8.10;;;;;;;;;;6283374;22;20228;-79
2023/12/03 02:20:57;;;;;;;10.25;8.05;;;;;;;;;;6283320;22;20294;-80
2023/12/03 02:23:29;;;;;;;13.10;9.95;;;;;;;;;;6282865;22;20239;-80
2023/12/03 02:25:56;;;;;;;11.50;8.77;;;;;;;;;;6283158;22;20164;-80
2023/12/03 02:28:24;;;;;;;11.63;9.90;;;;;;;;;;6283273;22;20449;-80
2023/12/03 02:30:51;;;;;;;12.93;10.48;;;;;;;;;;6282893;22;20256;-80
2023/12/03 02:33:19;;;;;;;10.77;8.90;;;;;;;;;;6283077;22;20233;-80
2023/12/03 02:35:46;;;;;;;14.50;11.18;;;;;;;;;;6283758;22;20280;-79
2023/12/03 02:38:13;;;;;;;9.98;8.32;;;;;;;;;;6282402;22;20283;-79
2023/12/03 02:40:42;;;;;;;12.32;9.65;;;;;;;;;;6282611;22;20228;-80
2023/12/03 02:43:10;;;;;;;10.45;8.52;;;;;;;;;;6282840;22;20231;-79
2023/12/03 02:45:37;;;;;;;11.40;9.55;;;;;;;;;;6283452;22;20252;-80
2023/12/03 02:48:05;;;;;;;8.65;7.32;;;;;;;;;;6282370;22;20219;-80
2023/12/03 02:50:33;;;;;;;11.43;8.63;;;;;;;;;;6283502;22;20255;-80
2023/12/03 02:53:01;;;;;;;10.75;9.07;;;;;;;;;;6282622;22;20200;-79
2023/12/03 02:55:29;;;;;;;14.38;9.98;;;;;;;;;;6282335;22;20173;-80
2023/12/03 02:57:58;;;;;;;9.85;7.00;;;;;;;;;;6283085;22;20220;-80
2023/12/03 03:00:25;;;;;;;12.20;10.10;;;;;;;;;;6282489;22;20271;-79
2023/12/03 03:02:53;;;;;;;11.73;9.65;;;;;;;;;;6282745;22;20234;-80
2023/12/03 03:05:21;;;;;;;14.57;10.48;;;;;;;;;;6283812;22;20199;-80
2023/12/03 03:07:48;;;;;;;10.45;8.02;;;;;;;;;;6282845;22;20176;-80
2023/12/03 03:10:16;;;;;;;8.02;6.85;;;;;;;;;;6282454;22;20224;-80
2023/12/03 03:12:43;;;;;;;12.27;8.10;;;;;;;;;;6282694;22;20227;-79
2023/12/03 03:15:12;;;;;;;12.02;8.57;;;;;;;;;;6282819;22;20570;-79
2023/12/03 03:17:40;;;;;;;10.90;9.23;;;;;;;;;;6283092;22;20200;-79
2023/12/03 03:20:09;;;;;;;11.15;7.75;;;;;;;;;;6282677;22;20283;-79
2023/12/03 03:22:36;;;;;;;9.10;8.15;;;;;;;;;;6282524;22;20256;-79
2023/12/03 03:25:05;;;;;;;11.80;7.80;;;;;;;;;;6282506;22;20693;-79
2023/12/03 03:27:33;;;;;;;11.50;9.25;;;;;;;;;;6283209;22;20203;-79
2023/12/03 03:30:00;;;;;;;9.80;7.90;;;;;;;;;;6282882;22;20172;-80
2023/12/03 03:32:29;;;;;;;9.50;7.88;;;;;;;;;;6283381;22;20172;-79
2023/12/03 03:34:57;;;;;;;9.50;7.72;;;;;;;;;;6282771;22;20259;-79
2023/12/03 03:37:24;;;;;;;13.35;9.07;;;;;;;;;;6283089;22;20204;-79
2023/12/03 03:39:51;;;;;;;10.63;8.30;;;;;;;;;;6282554;22;20236;-80
2023/12/03 03:42:19;;;;;;;11.85;9.10;;;;;;;;;;6283474;22;20681;-79
2023/12/03 03:44:46;;;;;;;7.85;7.05;;;;;;;;;;6283410;22;20188;-80
2023/12/03 03:47:14;;;;;;;9.68;7.68;;;;;;;;;;6281931;22;20228;-79
2023/12/03 03:49:43;;;;;;;11.52;9.15;;;;;;;;;;6283845;22;20571;-79
2023/12/03 03:52:11;;;;;;;10.88;8.45;;;;;;;;;;6282899;22;20200;-79
2023/12/03 03:54:41;;;;;;;14.50;9.90;;;;;;;;;;6283018;22;20689;-79
2023/12/03 03:57:09;;;;;;;10.40;8.38;;;;;;;;;;6283229;22;20172;-79
2023/12/03 03:59:36;;;;;;;13.05;8.65;;;;;;;;;;6282589;22;20283;-79
2023/12/03 04:02:04;;;;;;;12.25;8.48;;;;;;;;;;6282624;22;20251;-79
2023/12/03 04:04:32;;;;;;;8.68;7.45;;;;;;;;;;6282245;22;20207;-79
2023/12/03 04:07:00;;;;;;;10.95;6.97;;;;;;;;;;6283114;22;20184;-79
2023/12/03 04:09:29;;;;;;;8.02;6.15;;;;;;;;;;6283620;22;20212;-80
2023/12/03 04:11:56;;;;;;;8.90;7.28;;;;;;;;;;6282638;22;20184;-80
2023/12/03 04:14:24;;;;;;;6.88;5.68;;;;;;;;;;6282909;22;20251;-79
2023/12/03 04:16:51;;;;;;;8.85;7.53;;;;;;;;;;6283073;22;20176;-80
2023/12/03 04:19:19;;;;;;;10.90;7.72;;;;;;;;;;6282497;22;20661;-80
2023/12/03 04:21:46;;;;;;;8.88;7.22;;;;;;;;;;6283394;22;20215;-79
2023/12/03 04:24:15;;;;;;;9.35;7.65;;;;;;;;;;6282147;22;20191;-80
2023/12/03 04:26:43;;;;;;;13.20;8.00;;;;;;;;;;6283055;22;20257;-80
2023/12/03 04:29:11;;;;;;;8.80;6.97;;;;;;;;;;6282887;22;20658;-80
2023/12/03 04:31:38;;;;;;;8.13;6.80;;;;;;;;;;6283100;22;20254;-79
2023/12/03 04:34:07;;;;;;;9.02;7.00;;;;;;;;;;6280740;22;20239;-79
2023/12/03 04:36:35;;;;;;;12.82;8.93;;;;;;;;;;6282461;22;20208;-77
2023/12/03 04:39:04;;;;;;;11.57;8.88;;;;;;;;;;6281644;22;20272;-79
2023/12/03 04:41:37;;;;;;;11.70;9.15;;;;;;;;;;6282083;22;20176;-79
2023/12/03 04:44:05;;;;;;;7.05;6.28;;;;;;;;;;6282300;22;20489;-79
2023/12/03 04:46:33;;;;;;;8.57;6.68;;;;;;;;;;6280579;22;20172;-78
2023/12/03 04:49:00;;;;;;;7.10;6.45;;;;;;;;;;6279678;22;20228;-79
2023/12/03 04:51:28;;;;;;;8.23;7.05;;;;;;;;;;6281157;22;20196;-80
2023/12/03 04:53:55;;;;;;;7.07;6.25;;;;;;;;;;6281185;22;20183;-80
2023/12/03 04:56:22;;;;;;;8.77;7.25;;;;;;;;;;6281813;22;20232;-79
2023/12/03 04:58:51;;;;;;;9.90;7.07;;;;;;;;;;6280546;22;20216;-80
2023/12/03 05:01:18;;;;;;;8.60;7.28;;;;;;;;;;6280421;22;20215;-79
2023/12/03 05:03:46;;;;;;;11.43;8.45;;;;;;;;;;6281533;22;20199;-79
2023/12/03 05:06:13;;;;;;;11.05;8.77;;;;;;;;;;6279911;22;20232;-79
2023/12/03 05:08:41;;;;;;;8.50;7.50;;;;;;;;;;6281548;22;20271;-79
2023/12/03 05:11:09;;;;;;;7.35;5.88;;;;;;;;;;6280962;22;20563;-79
2023/12/03 05:13:36;;;;;;;9.90;7.47;;;;;;;;;;6281892;22;20425;-79
2023/12/03 05:16:06;;;;;;;5.53;4.93;;;;;;;;;;6280329;22;20257;-80
2023/12/03 05:18:34;;;;;;;8.95;8.05;;;;;;;;;;6282389;22;20570;-79
2023/12/03 05:21:01;;;;;;;9.60;6.90;;;;;;;;;;6283168;22;20231;-79
2023/12/03 05:23:29;;;;;;;9.82;7.43;;;;;;;;;;6282556;22;20230;-79
2023/12/03 05:25:57;;;;;;;8.00;6.40;;;;;;;;;;6282972;22;20296;-80
2023/12/03 05:28:24;;;;;;;8.00;6.68;;;;;;;;;;6282722;22;20657;-80
2023/12/03 05:30:52;;;;;;;9.00;6.53;;;;;;;;;;6282808;22;20169;-80
2023/12/03 05:33:20;;;;;;;9.35;7.55;;;;;;;;;;6283040;22;20239;-79
2023/12/03 05:35:48;;;;;;;8.57;6.95;;;;;;;;;;6282774;22;20259;-80
2023/12/03 05:38:15;;;;;;;8.57;7.68;;;;;;;;;;6282622;22;20234;-79
2023/12/03 05:40:43;;;;;;;7.47;6.63;;;;;;;;;;6283220;22;20251;-79
2023/12/03 05:43:10;;;;;;;6.88;5.72;;;;;;;;;;6283062;22;20203;-79
2023/12/03 05:45:38;;;;;;;8.20;6.32;;;;;;;;;;6283460;22;20633;-79
2023/12/03 05:48:06;;;;;;;6.93;5.68;;;;;;;;;;6282384;22;20279;-80
2023/12/03 05:50:35;;;;;;;12.00;8.63;;;;;;;;;;6282195;22;20218;-80
2023/12/03 05:53:02;;;;;;;13.25;8.90;;;;;;;;;;6282112;22;20200;-79
2023/12/03 05:55:30;;;;;;;8.35;7.13;;;;;;;;;;6282328;22;20286;-79
2023/12/03 05:57:57;;;;;;;8.75;7.38;;;;;;;;;;6282014;22;20202;-79
2023/12/03 06:00:25;;;;;;;8.18;6.65;;;;;;;;;;6281882;22;20587;-80
2023/12/03 06:02:53;;;;;;;9.95;7.72;;;;;;;;;;6281834;22;20868;-80
2023/12/03 06:05:20;;;;;;;8.45;6.65;;;;;;;;;;6282585;22;20233;-79
2023/12/03 06:07:49;;;;;;;12.95;10.35;;;;;;;;;;6282124;22;20207;-79
2023/12/03 06:10:16;;;;;;;9.10;7.65;;;;;;;;;;6281823;22;20552;-79
2023/12/03 06:12:44;;;;;;;14.82;11.35;;;;;;;;;;6281743;22;20251;-79
2023/12/03 06:15:12;;;;;;;12.07;8.85;;;;;;;;;;6281723;22;20689;-80
2023/12/03 06:17:39;;;;;;;12.20;8.55;;;;;;;;;;6281683;22;20176;-79
2023/12/03 06:20:09;;;;;;;11.30;9.00;;;;;;;;;;6281243;22;20237;-79
2023/12/03 06:22:37;;;;;;;13.60;9.88;;;;;;;;;;6282336;22;20188;-78
2023/12/03 06:25:08;;;;;;;12.27;9.20;;;;;;;;;;6282290;22;20251;-79
2023/12/03 06:27:35;;;;;;;10.13;8.27;;;;;;;;;;6282569;22;20156;-79
2023/12/03 06:30:03;;;;;;;10.20;8.43;;;;;;;;;;6281896;22;20176;-78
2023/12/03 06:32:30;;;;;;;14.32;10.57;;;;;;;;;;6282234;22;20199;-79
2023/12/03 06:34:58;;;;;;;13.77;10.00;;;;;;;;;;6281647;22;20183;-78
2023/12/03 06:37:25;;;;;;;17.83;12.18;;;;;;;;;;6282988;22;20203;-80
2023/12/03 06:39:53;;;;;;;14.30;11.35;;;;;;;;;;6281345;22;20271;-80
2023/12/03 06:42:21;;;;;;;12.38;10.50;;;;;;;;;;6281233;22;20900;-80
2023/12/03 06:44:49;;;;;;;13.35;10.02;;;;;;;;;;6282432;22;20263;-79
2023/12/03 06:47:16;;;;;;;13.13;8.80;;;;;;;;;;6283359;22;20558;-79
2023/12/03 06:49:44;;;;;;;11.95;10.32;;;;;;;;;;6281444;22;20231;-79
2023/12/03 06:52:11;;;;;;;11.25;8.70;;;;;;;;;;6282000;22;20200;-79
2023/12/03 06:54:38;;;;;;;8.43;7.57;;;;;;;;;;6282055;22;20204;-78
2023/12/03 06:57:06;;;;;;;11.90;10.48;;;;;;;;;;6281327;22;20263;-78
2023/12/03 06:59:35;;;;;;;9.82;8.27;;;;;;;;;;6281409;22;20222;-78
2023/12/03 07:02:02;;;;;;;12.93;10.05;;;;;;;;;;6281129;22;20279;-80
2023/12/03 07:04:30;;;;;;;14.15;11.35;;;;;;;;;;6281806;22;20195;-79
2023/12/03 07:06:57;;;;;;;12.30;10.32;;;;;;;;;;6282073;22;20615;-80
2023/12/03 07:09:24;;;;;;;11.38;8.95;;;;;;;;;;6281548;22;20271;-79
2023/12/03 07:11:52;;;;;;;9.48;7.85;;;;;;;;;;6282012;22;20255;-80
2023/12/03 07:14:19;;;;;;;10.88;9.48;;;;;;;;;;6282339;22;20263;-79
2023/12/03 07:16:48;;;;;;;8.52;7.00;;;;;;;;;;6281276;22;20260;-80
2023/12/03 07:19:16;;;;;;;11.30;9.10;;;;;;;;;;6282166;22;20275;-79
2023/12/03 07:21:43;;;;;;;9.43;7.20;;;;;;;;;;6281816;22;20277;-79
2023/12/03 07:24:10;;;;;;;13.85;9.82;;;;;;;;;;6282223;22;20581;-78
2023/12/03 07:26:38;;;;;;;17.55;11.02;;;;;;;;;;6281691;22;20196;-80
2023/12/03 07:29:05;;;;;;;14.30;11.23;;;;;;;;;;6282057;22;20607;-79
2023/12/03 07:31:33;;;;;;;14.45;10.88;;;;;;;;;;6281557;22;20172;-79
2023/12/03 07:34:01;;;;;;;12.80;10.18;;;;;;;;;;6281292;22;20196;-79
2023/12/03 07:36:29;;;;;;;13.90;10.50;;;;;;;;;;6282149;22;20211;-78
2023/12/03 07:38:56;;;;;;;17.73;12.90;;;;;;;;;;6281072;22;20271;-77
2023/12/03 07:41:24;;;;;;;12.57;9.95;;;;;;;;;;6280757;22;20234;-78
2023/12/03 07:43:51;;;;;;;12.05;9.52;;;;;;;;;;6282148;22;20210;-79
2023/12/03 07:46:19;;;;;;;12.27;9.68;;;;;;;;;;6281504;22;20208;-80
2023/12/03 07:48:46;;;;;;;13.50;11.80;;;;;;;;;;6282149;22;20231;-80
2023/12/03 07:51:15;;;;;;;14.13;10.68;;;;;;;;;;6282081;22;20252;-80
2023/12/03 07:53:43;;;;;;;10.32;9.20;;;;;;;;;;6282744;22;20251;-80
2023/12/03 07:56:11;;;;;;;10.85;8.82;;;;;;;;;;6282694;22;20176;-78
2023/12/03 07:58:38;;;;;;;13.20;10.70;;;;;;;;;;6281106;22;20227;-79
2023/12/03 08:01:07;;;;;;;12.85;11.27;;;;;;;;;;6281356;22;20222;-79
2023/12/03 08:03:34;;;;;;;16.80;11.68;;;;;;;;;;6281461;22;20212;-79
2023/12/03 08:06:02;;;;;;;17.98;13.10;;;;;;;;;;6280854;22;20259;-78
2023/12/03 08:08:31;;;;;;;15.57;11.50;;;;;;;;;;6281373;22;20204;-77
2023/12/03 08:10:58;;;;;;;15.10;12.23;;;;;;;;;;6281335;22;20710;-79
2023/12/03 08:13:26;;;;;;;12.00;9.55;;;;;;;;;;6281454;22;20199;-79
2023/12/03 08:15:54;;;;;;;11.52;9.18;;;;;;;;;;6282065;22;20183;-79
2023/12/03 08:18:21;;;;;;;13.05;9.90;;;;;;;;;;6282061;22;20247;-77
2023/12/03 08:20:49;;;;;;;9.75;8.27;;;;;;;;;;6280751;22;20172;-80
2023/12/03 08:23:16;;;;;;;11.13;8.60;;;;;;;;;;6280684;22;20271;-80
2023/12/03 08:25:45;;;;;;;11.07;8.25;;;;;;;;;;6281190;22;20180;-80
2023/12/03 08:28:13;;;;;;;7.75;6.90;;;;;;;;;;6281566;22;20271;-79
2023/12/03 08:30:40;;;;;;;9.45;7.45;;;;;;;;;;6280393;22;20649;-78
2023/12/03 08:33:07;;;;;;;10.18;9.02;;;;;;;;;;6281204;22;20196;-79
2023/12/03 08:35:35;;;;;;;10.18;7.35;;;;;;;;;;6281193;22;20215;-78
2023/12/03 08:38:02;;;;;;;9.20;7.70;;;;;;;;;;6280847;22;20271;-78
2023/12/03 08:40:30;;;;;;;12.25;9.48;;;;;;;;;;6281604;22;20262;-78
2023/12/03 08:42:59;;;;;;;15.65;11.55;;;;;;;;;;6281293;22;20215;-79
2023/12/03 08:45:27;;;;;;;12.63;10.13;;;;;;;;;;6281975;22;20203;-80
2023/12/03 08:47:55;;;;;;;12.30;9.45;;;;;;;;;;6281758;22;20168;-78
2023/12/03 08:50:27;;;;;;;15.40;10.82;;;;;;;;;;6281924;22;20228;-79
2023/12/03 08:52:54;;;;;;;12.18;9.75;;;;;;;;;;6283328;22;20621;-79
2023/12/03 08:55:21;;;;;;;10.25;8.27;;;;;;;;;;6283401;22;20251;-79
2023/12/03 08:57:49;;;;;;;15.02;11.68;;;;;;;;;;6283154;22;20259;-79
2023/12/03 09:00:19;;;;;;;13.55;9.90;;;;;;;;;;6283296;22;20184;-79
2023/12/03 09:02:47;;;;;;;12.82;9.18;;;;;;;;;;6283129;22;20224;-80
2023/12/03 09:05:15;;;;;;;12.98;9.50;;;;;;;;;;6283879;22;20199;-80
2023/12/03 09:07:42;;;;;;;10.57;8.73;;;;;;;;;;6283701;22;20247;-79
2023/12/03 09:10:10;;;;;;;14.68;11.10;;;;;;;;;;6282692;22;20579;-78
2023/12/03 09:12:39;;;;;;;16.65;12.88;;;;;;;;;;6282534;22;20233;-78
2023/12/03 09:15:07;;;;;;;14.27;11.73;;;;;;;;;;6283570;22;20695;-78
2023/12/03 09:17:36;;;;;;;16.13;12.32;;;;;;;;;;6282911;22;20208;-80
2023/12/03 09:20:05;;;;;;;14.45;11.63;;;;;;;;;;6282964;22;20191;-79
2023/12/03 09:22:33;;;;;;;17.58;13.13;;;;;;;;;;6283217;22;20583;-78
2023/12/03 09:25:00;;;;;;;16.63;11.98;;;;;;;;;;6283817;22;20161;-79
2023/12/03 09:27:28;;;;;;;17.20;12.18;;;;;;;;;;6282805;22;20569;-80
2023/12/03 09:29:55;;;;;;;13.80;9.85;;;;;;;;;;6281644;22;20275;-79
2023/12/03 09:32:23;;;;;;;16.20;12.07;;;;;;;;;;6282857;22;20179;-79
2023/12/03 09:34:51;;;;;;;16.95;12.57;;;;;;;;;;6283257;22;20251;-80
2023/12/03 09:37:19;;;;;;;18.45;13.07;;;;;;;;;;6282699;22;20251;-80
2023/12/03 09:39:46;;;;;;;15.02;12.25;;;;;;;;;;6282581;22;20252;-79
2023/12/03 09:42:18;;;;;;;18.75;12.48;;;;;;;;;;6282485;22;20228;-78
2023/12/03 09:44:52;;;;;;;17.65;13.07;;;;;;;;;;6283020;22;20161;-80
2023/12/03 09:47:24;;;;;;;17.70;12.60;;;;;;;;;;6283668;22;20186;-80
2023/12/03 09:49:56;;;;;;;17.58;13.10;;;;;;;;;;6282574;22;20275;-79
2023/12/03 09:52:26;;;;;;;16.02;12.43;;;;;;;;;;6282932;22;20228;-80
2023/12/03 09:54:57;;;;;;;17.30;12.40;;;;;;;;;;6283462;22;20588;-80
2023/12/03 09:57:27;;;;;;;16.75;11.85;;;;;;;;;;6283971;22;20677;-79
2023/12/03 09:59:59;;;;;;;15.52;11.50;;;;;;;;;;6282263;22;20224;-80
2023/12/03 10:02:29;;;;;;;20.10;13.30;;;;;;;;;;6282502;22;20609;-78
2023/12/03 10:04:57;;;;;;;19.27;12.85;;;;;;;;;;6283101;22;20176;-78
2023/12/03 10:07:30;;;;;;;15.38;11.68;;;;;;;;;;6283502;22;20244;-79
2023/12/03 10:10:00;;;;;;;13.93;9.95;;;;;;;;;;6283156;22;20220;-80
2023/12/03 10:12:40;;;;;;;17.00;13.60;;;;;;;;;;6283508;22;20203;-80
2023/12/03 10:15:09;;;;;;;14.23;10.95;;;;;;;;;;6282804;22;20199;-80
2023/12/03 10:17:38;;;;;;;17.40;13.57;;;;;;;;;;6283388;22;20207;-78
2023/12/03 10:20:27;;;;;;;11.63;10.20;;;;;;;;;;6282565;22;20185;-79
2023/12/03 10:22:58;;;;;;;14.82;10.95;;;;;;;;;;6282915;22;20215;-79
2023/12/03 10:25:33;;;;;;;15.60;11.95;;;;;;;;;;6283664;22;20193;-80
2023/12/03 10:28:03;;;;;;;14.85;11.95;;;;;;;;;;6283404;22;20227;-80
2023/12/03 10:30:31;;;;;;;15.38;11.82;;;;;;;;;;6282399;22;20202;-80
2023/12/03 10:32:58;;;;;;;18.38;12.45;;;;;;;;;;6282504;22;20235;-80
2023/12/03 10:35:33;;;;;;;14.38;11.23;;;;;;;;;;6282435;22;20196;-80
2023/12/03 10:38:00;;;;;;;13.07;10.82;;;;;;;;;;6282580;22;20195;-79
2023/12/03 10:40:28;;;;;;;14.35;11.68;;;;;;;;;;6282373;22;20260;-80
2023/12/03 10:42:55;;;;;;;14.00;10.77;;;;;;;;;;6281966;22;20230;-80
2023/12/03 10:45:23;;;;;;;12.63;10.50;;;;;;;;;;6282014;22;20211;-80
2023/12/03 10:47:51;;;;;;;14.05;10.77;;;;;;;;;;6281405;22;20200;-80
2023/12/03 10:50:19;;;;;;;16.70;12.23;;;;;;;;;;6280898;22;20211;-79
2023/12/03 10:52:48;;;;;;;15.82;12.75;;;;;;;;;;6282059;22;20259;-79
2023/12/03 10:55:15;;;;;;;12.38;10.48;;;;;;;;;;6281282;22;20644;-79
2023/12/03 10:57:53;;;;;;;11.00;8.52;;;;;;;;;;6280741;22;20177;-81
2023/12/03 11:00:21;;;;;;;11.60;9.43;;;;;;;;;;6280976;22;20191;-81
2023/12/03 11:03:01;;;;;;;10.25;9.23;;;;;;;;;;6282042;22;20251;-81
2023/12/03 11:05:43;;;;;;;11.05;9.02;;;;;;;;;;6283045;22;20239;-79
2023/12/03 11:08:13;;;;;;;11.85;9.32;;;;;;;;;;6281347;22;20215;-80
2023/12/03 11:10:40;;;;;;;11.43;10.32;;;;;;;;;;6282170;22;20207;-80
2023/12/03 11:13:09;;;;;;;15.60;12.13;;;;;;;;;;6281462;22;20176;-80
2023/12/03 11:15:36;;;;;;;12.30;9.48;;;;;;;;;;6281168;22;20172;-81
2023/12/03 11:18:04;;;;;;;12.02;9.88;;;;;;;;;;6281460;22;20275;-81
2023/12/03 11:20:35;;;;;;;13.77;10.35;;;;;;;;;;6280694;22;20227;-81
2023/12/03 11:23:24;;;;;;;10.90;9.50;;;;;;;;;;6282000;22;20214;-81
2023/12/03 11:25:56;;;;;;;8.77;6.97;;;;;;;;;;6282009;22;20184;-81
2023/12/03 11:28:23;;;;;;;10.48;8.05;;;;;;;;;;6281956;22;20576;-80
2023/12/03 11:30:51;;;;;;;9.07;8.18;;;;;;;;;;6280920;22;20250;-81
2023/12/03 11:33:23;;;;;;;8.65;6.95;;;;;;;;;;6281920;22;20641;-80
2023/12/03 11:35:52;;;;;;;8.00;7.15;;;;;;;;;;6282322;22;20203;-81
2023/12/03 11:38:32;;;;;;;10.48;8.25;;;;;;;;;;6281538;22;20275;-80
2023/12/03 11:40:59;;;;;;;9.93;7.75;;;;;;;;;;6281521;22;20156;-81
2023/12/03 11:43:28;;;;;;;11.35;9.70;;;;;;;;;;6281094;22;20196;-81
2023/12/03 11:45:56;;;;;;;10.68;8.80;;;;;;;;;;6280822;22;20176;-81
2023/12/03 11:48:27;;;;;;;9.55;8.35;;;;;;;;;;6281011;22;20224;-81
2023/12/03 11:50:56;;;;;;;10.88;9.77;;;;;;;;;;6281252;22;20157;-81
2023/12/03 11:53:38;;;;;;;8.82;7.68;;;;;;;;;;6280570;22;20176;-81
2023/12/03 11:56:08;;;;;;;10.10;7.88;;;;;;;;;;6281008;22;20207;-80
2023/12/03 11:58:35;;;;;;;13.73;12.20;;;;;;;;;;6281504;22;20224;-80
2023/12/03 12:01:03;;;;;;;9.55;8.38;;;;;;;;;;6280722;22;20649;-81
2023/12/03 12:03:30;;;;;;;10.70;8.65;;;;;;;;;;6281057;22;20634;-81
2023/12/03 12:05:58;;;;;;;11.25;9.30;;;;;;;;;;6280368;22;20246;-80
2023/12/03 12:08:25;;;;;;;9.05;7.53;;;;;;;;;;6280238;22;20200;-80
2023/12/03 12:10:54;;;;;;;9.38;8.40;;;;;;;;;;6280329;22;20227;-81
2023/12/03 12:13:23;;;;;;;11.38;9.55;;;;;;;;;;6280791;22;20259;-81
2023/12/03 12:15:51;;;;;;;14.23;11.27;;;;;;;;;;6280984;22;20179;-81
2023/12/03 12:18:22;;;;;;;10.82;9.18;;;;;;;;;;6281232;22;20223;-80
2023/12/03 12:20:49;;;;;;;12.88;9.73;;;;;;;;;;6280789;22;20677;-81
2023/12/03 12:23:17;;;;;;;14.05;11.13;;;;;;;;;;6279800;22;20208;-81
2023/12/03 12:25:44;;;;;;;14.05;11.27;;;;;;;;;;6281990;22;20722;-80
2023/12/03 12:28:13;;;;;;;10.23;8.85;;;;;;;;;;6283546;22;20275;-81
2023/12/03 12:30:41;;;;;;;12.35;10.32;;;;;;;;;;6283208;22;20207;-81
2023/12/03 12:33:10;;;;;;;10.45;8.38;;;;;;;;;;6283703;22;20644;-80
2023/12/03 12:35:38;;;;;;;12.43;10.10;;;;;;;;;;6284089;22;20225;-80
2023/12/03 12:38:07;;;;;;;15.45;11.52;;;;;;;;;;6283440;22;20227;-81
2023/12/03 12:40:38;;;;;;;13.05;10.43;;;;;;;;;;6284277;22;20172;-81
2023/12/03 12:43:07;;;;;;;13.50;10.07;;;;;;;;;;6284694;22;20218;-79
2023/12/03 12:45:36;;;;;;;11.18;9.00;;;;;;;;;;6283890;22;20271;-79
2023/12/03 12:48:04;;;;;;;15.52;11.05;;;;;;;;;;6284291;22;20245;-81
2023/12/03 12:50:36;;;;;;;11.32;10.00;;;;;;;;;;6283733;22;20204;-81
2023/12/03 12:53:06;;;;;;;11.48;10.15;;;;;;;;;;6284446;22;20207;-82
2023/12/03 12:55:34;;;;;;;12.90;10.50;;;;;;;;;;6284620;22;20549;-80
2023/12/03 12:58:05;;;;;;;11.13;8.85;;;;;;;;;;6283361;22;20504;-80
2023/12/03 13:00:34;;;;;;;14.43;11.13;;;;;;;;;;6283659;22;20164;-80
2023/12/03 13:03:03;;;;;;;12.55;10.73;;;;;;;;;;6284259;22;20176;-80
2023/12/03 13:05:31;;;;;;;11.98;8.32;;;;;;;;;;6284124;22;20224;-80
2023/12/03 13:07:58;;;;;;;12.40;9.65;;;;;;;;;;6283698;22;20271;-82
2023/12/03 13:10:26;;;;;;;11.77;10.45;;;;;;;;;;6283368;22;20621;-82
2023/12/03 13:12:53;;;;;;;15.00;11.40;;;;;;;;;;6283150;22;20255;-82
2023/12/03 13:15:21;;;;;;;14.13;11.55;;;;;;;;;;6283941;22;20251;-81
2023/12/03 13:17:49;;;;;;;16.75;12.52;;;;;;;;;;6283383;22;20679;-81
2023/12/03 13:20:18;;;;;;;13.80;11.18;;;;;;;;;;6284354;22;20196;-81
2023/12/03 13:22:49;;;;;;;10.60;9.05;;;;;;;;;;6284166;22;20254;-81
2023/12/03 13:25:17;;;;;;;10.70;8.07;;;;;;;;;;6283865;22;20267;-80
2023/12/03 13:27:44;;;;;;;9.65;7.85;;;;;;;;;;6284105;22;20198;-81
2023/12/03 13:30:12;;;;;;;10.50;9.25;;;;;;;;;;6282751;22;20569;-80
2023/12/03 13:32:41;;;;;;;10.65;8.43;;;;;;;;;;6284578;22;20183;-79
2023/12/03 13:35:09;;;;;;;11.18;8.05;;;;;;;;;;6283641;22;20215;-81
2023/12/03 13:37:38;;;;;;;9.38;7.10;;;;;;;;;;6284132;22;20204;-80
2023/12/03 13:40:07;;;;;;;10.20;7.47;;;;;;;;;;6281947;22;20211;-81
2023/12/03 13:42:35;;;;;;;7.05;6.35;;;;;;;;;;6282194;22;20626;-81
2023/12/03 13:45:03;;;;;;;8.75;7.53;;;;;;;;;;6281810;22;20200;-80
2023/12/03 13:47:31;;;;;;;8.65;7.68;;;;;;;;;;6282375;22;20194;-81
2023/12/03 13:50:00;;;;;;;7.97;7.18;;;;;;;;;;6281632;22;20251;-81
2023/12/03 13:52:28;;;;;;;9.27;6.07;;;;;;;;;;6282442;22;20233;-81
2023/12/03 13:54:58;;;;;;;8.02;6.95;;;;;;;;;;6281775;22;20456;-81
2023/12/03 13:57:26;;;;;;;9.23;6.20;;;;;;;;;;6282238;22;20637;-79
2023/12/03 13:59:54;;;;;;;9.10;8.00;;;;;;;;;;6281904;22;20196;-80
2023/12/03 14:02:21;;;;;;;8.63;6.95;;;;;;;;;;6282021;22;20230;-80
2023/12/03 14:04:49;;;;;;;7.80;6.70;;;;;;;;;;6281012;22;20255;-80
2023/12/03 14:07:16;;;;;;;9.93;8.15;;;;;;;;;;6282644;22;20554;-79
2023/12/03 14:09:44;;;;;;;9.15;7.57;;;;;;;;;;6282035;22;20279;-81
2023/12/03 14:12:12;;;;;;;7.75;6.97;;;;;;;;;;6282093;22;20584;-81
2023/12/03 14:14:40;;;;;;;8.70;7.03;;;;;;;;;;6281887;22;20174;-79
2023/12/03 14:17:09;;;;;;;8.10;7.30;;;;;;;;;;6283109;22;20259;-80
2023/12/03 14:19:38;;;;;;;7.95;7.03;;;;;;;;;;6282774;22;20196;-80
2023/12/03 14:22:05;;;;;;;10.90;9.20;;;;;;;;;;6282249;22;20183;-81
2023/12/03 14:24:33;;;;;;;12.02;9.88;;;;;;;;;;6282180;22;20215;-80
2023/12/03 14:27:00;;;;;;;11.82;9.27;;;;;;;;;;6281410;22;20314;-81
2023/12/03 14:29:29;;;;;;;11.35;9.90;;;;;;;;;;6281348;22;20227;-80
2023/12/03 14:31:57;;;;;;;14.02;10.95;;;;;;;;;;6281226;22;20214;-80
2023/12/03 14:34:24;;;;;;;11.82;10.55;;;;;;;;;;6281944;22;20621;-80
2023/12/03 14:36:52;;;;;;;12.27;10.23;;;;;;;;;;6281785;22;20225;-81